Flight Track Log - Related Links

Times and Time Zones

All times are in EST time to prevent confusion due to time zone crossing. See the N589H flight status page for this flight to view local times or setup timezone preferences in your user account.

Time Position Orientation Groundspeed Altitude Reporting Facility
EST Latitude Longitude Course Direction KTS MPH feet Rate Location/Type
Sat 11:28:18 AM 25.0967 -77.5058 26° Northeast 372 428 3,500  Level Miami Center
Sat 11:29:18 AM 25.1386 -77.4833 26° Northeast 255 293 5,500 1,550 Climbing Miami Center
Sat 11:30:18 AM 25.1803 -77.4581 29° Northeast 219 252 6,600 1,300 Climbing Miami Center
Sat 11:31:18 AM 25.2369 -77.4264 27° Northeast 214 246 8,100 1,550 Climbing Miami Center
Sat 11:32:18 AM 25.2956 -77.3919 28° Northeast 224 258 9,700 1,650 Climbing Miami Center
Sat 11:33:18 AM 25.3564 -77.3556 28° Northeast 234 269 11,400 1,700 Climbing Miami Center
Sat 11:34:18 AM 25.4169 -77.3211 27° Northeast 239 275 13,100 1,750 Climbing Miami Center
Sat 11:35:18 AM 25.4797 -77.2847 28° Northeast 239 275 14,900 1,550 Climbing Miami Center
Sat 11:36:18 AM 25.5425 -77.2481 28° Northeast 239 275 16,200 1,300 Climbing Miami Center
Sat 11:37:18 AM 25.6117 -77.2092 27° Northeast 254 292 17,500 1,200 Climbing Miami Center
Sat 11:38:18 AM 25.6767 -77.1678 30° Northeast 260 299 18,600 1,200 Climbing Miami Center
Sat 11:39:18 AM 25.7436 -77.1311 26° Northeast 266 306 19,900 1,350 Climbing Miami Center
Sat 11:40:18 AM 25.8083 -77.0919 29° Northeast 261 300 21,300 1,200 Climbing Miami Center
Sat 11:41:18 AM 25.8733 -77.0550 27° Northeast 261 300 22,300 1,000 Climbing Miami Center
Sat 11:42:18 AM 25.9381 -77.0136 30° Northeast 261 300 23,300 1,000 Climbing Miami Center
Sat 11:43:18 AM 26.0050 -76.9836 22° Northeast 261 300 24,300 900 Climbing Miami Center
Sat 11:44:18 AM 26.0697 -76.9928 353° North 236 272 25,100 641 Climbing Miami Center
Sat 11:45:29 AM 26.1322 -77.0278 333° Northwest 226 260 25,700 545 Climbing Miami Center
Sat 11:46:30 AM 26.2097 -77.0603 339° North 239 275 26,300 793 Climbing Miami Center
Sat 11:47:30 AM 26.2786 -77.0950 336° Northwest 239 275 27,300 850 Climbing Miami Center
Sat 11:48:30 AM 26.3392 -77.1253 336° Northwest 239 275 28,000 700 Climbing Miami Center
Sat 11:49:30 AM 26.3994 -77.1581 334° Northwest 239 275 28,700 500 Climbing Miami Center
Sat 11:50:30 AM 26.4622 -77.1931 333° Northwest 239 275 29,000 300 Climbing Miami Center
Sat 11:51:30 AM 26.5269 -77.2211 339° North 239 275 29,300 550 Climbing Miami Center
Sat 11:52:30 AM 26.5894 -77.2536 335° Northwest 245 282 30,100 800 Climbing Miami Center
Sat 11:53:30 AM 26.6500 -77.2817 338° Northwest 238 274 30,900 450 Climbing Miami Center
Sat 11:54:30 AM 26.7106 -77.3169 333° Northwest 238 274 31,000 50 Climbing Miami Center
Sat 11:55:30 AM 26.7753 -77.3428 340° North 238 274 31,000  Level Miami Center
Sat 11:56:30 AM 26.8419 -77.3686 341° North 243 280 31,000  Level Miami Center
Sat 11:57:30 AM 26.9108 -77.4108 331° Northwest 263 303 31,000  Level Miami Center
Sat 11:58:30 AM 26.9881 -77.4300 348° North 263 303 31,000  Level Miami Center
Sat 11:59:30 AM 27.0714 -77.4325 358° North 277 319 31,000  Level Miami Center
Sat 12:00:30 PM 27.1531 -77.4353 358° North 283 326 31,000  Level Miami Center
Sat 12:01:30 PM 27.2344 -77.4403 357° North 293 337 31,000  Level Miami Center
Sat 12:02:30 PM 27.3178 -77.4478 355° North 293 337 31,000 150 Level Miami Center
Sat 12:03:30 PM 27.3972 -77.4622 351° North 293 337 31,300 400 Climbing Miami Center
Sat 12:04:30 PM 27.4767 -77.4369 16° North 288 331 31,800 550 Climbing Miami Center
Sat 12:05:30 PM 27.5517 -77.4608 344° North 277 319 32,400 500 Climbing Miami Center
Sat 12:06:30 PM 27.6144 -77.4658 356° North 271 312 32,800 300 Climbing Miami Center
Sat 12:07:30 PM 27.7000 -77.4756 354° North 266 306 33,000 100 Climbing Miami Center
Sat 12:08:30 PM 27.7772 -77.4783 358° North 272 313 33,000  Level Miami Center
Sat 12:09:30 PM 27.8567 -77.4858 355° North 277 319 33,000  Level Miami Center
Sat 12:10:30 PM 27.9483 -77.4864 360° North 292 336 33,000  Level Miami Center
Sat 12:11:30 PM 28.0256 -77.4914 357° North 293 337 33,000  Level Miami Center
Sat 12:12:30 PM 28.1111 -77.4967 357° North 292 336 33,000  Level Miami Center
Sat 12:13:30 PM 28.1906 -77.5017 357° North 292 336 33,000  Level Miami Center
Sat 12:14:30 PM 28.2761 -77.5069 357° North 293 337 33,000  Level Miami Center
Sat 12:15:30 PM 28.3575 -77.5122 357° North 288 331 33,000  Level Miami Center
Sat 12:16:30 PM 28.4328 -77.5150 358° North 291 335 33,000  Level Miami Center
Sat 12:17:30 PM 28.5142 -77.5225 355° North 291 335 33,000  Level Miami Center
Sat 12:18:30 PM 28.5956 -77.5253 358° North 286 329 33,000  Level Miami Center
Sat 12:19:30 PM 28.6872 -77.5331 356° North 297 342 33,000  Level Miami Center
Sat 12:20:30 PM 28.7644 -77.5383 357° North 291 335 33,000 100 Level Miami Center
Sat 12:21:30 PM 28.8394 -77.5411 358° North 290 334 33,200 350 Climbing Miami Center
Sat 12:22:30 PM 28.9231 -77.5464 357° North 282 325 33,700 500 Climbing Miami Center
Sat 12:23:30 PM 28.9939 -77.5492 358° North 275 316 34,200 450 Climbing Miami Center
Sat 12:24:30 PM 29.0689 -77.5567 355° North 268 308 34,600 400 Climbing Miami Center
Sat 12:25:30 PM 29.1378 -77.5594 358° North 263 303 35,000 200 Climbing Miami Center
Sat 12:26:30 PM 29.2150 -77.5647 357° North 258 297 35,000  Level Miami Center
Sat 12:27:30 PM 29.2922 -77.5675 358° North 263 303 35,000  Level Miami Center
Sat 12:28:30 PM 29.3672 -77.5728 356° North 263 303 35,000  Level Miami Center
Sat 12:29:30 PM 29.4486 -77.5806 355° North 275 316 35,000  Level Miami Center
Sat 12:30:30 PM 29.5217 -77.5811 360° North 275 316 35,000  Level Miami Center
Sat 12:32:48 PM 29.6928 -77.5856 359° North 263 303 35,000  Level Jacksonville Center
Sat 12:33:48 PM 29.7722 -77.5886 358° North 277 319 35,000  Level Jacksonville Center
Sat 12:34:48 PM 29.8517 -77.5961 355° North 271 312 35,000  Level Jacksonville Center
Sat 12:35:48 PM 29.9272 -77.6017 356° North 276 318 35,000  Level Jacksonville Center
Sat 12:36:48 PM 30.0025 -77.6069 357° North 266 306 35,000  Level Jacksonville Center
Sat 12:37:48 PM 30.0756 -77.6056 North 273 314 35,000  Level Jacksonville Center
Sat 12:38:48 PM 30.1486 -77.6086 358° North 274 315 35,000  Level Jacksonville Center
Sat 12:39:48 PM 30.2194 -77.6047 North 274 315 35,000  Level Jacksonville Center
Sat 12:40:48 PM 30.2942 -77.5983 North 274 315 35,000  Level Jacksonville Center
Sat 12:41:49 PM 30.3717 -77.6036 357° North 274 315 35,000  Level Jacksonville Center
Sat 12:42:48 PM 30.4478 -77.6233 347° North 274 315 35,000  Level Jacksonville Center
Sat 12:43:48 PM 30.5247 -77.6167 North 274 315 35,000  Level Jacksonville Center
Sat 12:44:48 PM 30.6019 -77.6172 360° North 274 315 35,000  Level Jacksonville Center
Sat 12:45:48 PM 30.6792 -77.6178 360° North 274 315 35,000  Level Jacksonville Center
Sat 12:46:48 PM 30.7564 -77.6183 360° North 274 315 35,000  Level Jacksonville Center
Sat 12:47:48 PM 30.8336 -77.6214 358° North 274 315 35,000  Level Jacksonville Center
Sat 12:48:48 PM 30.9131 -77.6242 358° North 274 315 35,000  Level Jacksonville Center
Sat 12:49:48 PM 30.9925 -77.6247 360° North 274 315 35,000  Level Jacksonville Center
Sat 12:50:49 PM 31.0697 -77.6275 358° North 274 315 35,000  Level Jacksonville Center
Sat 12:51:48 PM 31.1472 -77.6281 360° North 274 315 35,000  Level Jacksonville Center
Sat 12:52:48 PM 31.2222 -77.6311 358° North 274 315 35,000  Level Jacksonville Center
Sat 12:53:48 PM 31.2997 -77.6342 358° North 274 315 35,000  Level Jacksonville Center
Sat 12:54:48 PM 31.3769 -77.6369 358° North 274 315 35,000  Level Jacksonville Center
Sat 12:55:48 PM 31.4542 -77.6375 360° North 274 315 35,000  Level Jacksonville Center
Sat 12:56:48 PM 31.5317 -77.6406 358° North 274 315 35,000  Level Jacksonville Center
Sat 12:57:48 PM 31.6092 -77.6458 357° North 274 315 35,000  Level Jacksonville Center
Sat 12:58:48 PM 31.6844 -77.6489 358° North 274 315 35,000  Level Jacksonville Center
Sat 12:59:48 PM 31.7597 -77.6544 356° North 274 315 35,000  Level Jacksonville Center
Sat 01:00:48 PM 31.8367 -77.6500 North 274 315 35,000  Level Jacksonville Center
Sat 01:01:48 PM 31.9097 -77.6483 North 274 315 35,000  Level Jacksonville Center
Sat 01:02:48 PM 31.9850 -77.6539 356° North 274 315 35,000  Level Jacksonville Center
Sat 01:03:48 PM 32.0603 -77.6544 360° North 274 315 35,000  Level Jacksonville Center
Sat 01:04:48 PM 32.1336 -77.6600 356° North 274 315 35,000  Level Jacksonville Center
Sat 01:05:48 PM 32.2086 -77.6606 360° North 274 315 35,000  Level Jacksonville Center
Sat 01:06:48 PM 32.2819 -77.6639 358° North 274 315 35,000  Level Jacksonville Center
Sat 01:07:48 PM 32.3531 -77.6697 356° North 274 315 35,000  Level Jacksonville Center
Sat 01:08:49 PM 32.4281 -77.6678 North 274 315 35,000  Level Jacksonville Center
Sat 01:09:48 PM 32.4992 -77.6711 358° North 269 310 35,000  Level Jacksonville Center
Sat 01:10:48 PM 32.5703 -77.6744 358° North 269 310 35,000  Level Jacksonville Center
Sat 01:11:48 PM 32.6469 -77.6575 11° North 264 304 35,000  Level Jacksonville Center
Sat 01:12:48 PM 32.7211 -77.6361 14° North 269 310 35,000 -400 Level Jacksonville Center
Sat 01:13:48 PM 32.7981 -77.6267 North 274 315 34,200 -800 Descending Jacksonville Center
Sat 01:14:48 PM 32.8794 -77.6317 357° North 274 315 33,400 -850 Descending Jacksonville Center
Sat 01:15:48 PM 32.9592 -77.6369 357° North 279 321 32,500 -900 Descending Jacksonville Center
Sat 01:16:48 PM 33.0447 -77.6394 359° North 293 337 31,600 -850 Descending Jacksonville Center
Sat 01:17:48 PM 33.1367 -77.6439 358° North 304 350 30,800 -850 Descending Jacksonville Center
Sat 01:18:48 PM 33.2267 -77.6461 359° North 322 371 29,900 -700 Descending Jacksonville Center
Sat 01:19:48 PM 33.3208 -77.6531 356° North 332 382 29,400 -284 Descending Jacksonville Center
Sat 01:21:58 PM 33.5239 -77.6594 358° North 332 382 29,000 -126 Descending Washington Center
Sat 01:22:59 PM 33.6136 -77.6617 359° North 328 377 29,000  Level Washington Center
Sat 01:24:03 PM 33.7039 -77.6669 357° North 326 375 29,000 -484 Level Washington Center
Sat 01:25:03 PM 33.7917 -77.6764 355° North 331 381 28,000 -1,033 Descending Washington Center
Sat 01:26:05 PM 33.8714 -77.7214 335° Northwest 321 369 26,900 -1,200 Descending Washington Center
Sat 01:27:08 PM 33.9686 -77.7714 337° Northwest 321 369 25,500 -1,172 Descending Washington Center
Sat 01:28:13 PM 34.0442 -77.8114 336° Northwest 321 369 24,400 -1,152 Descending Washington Center
Sat 01:29:13 PM 34.1394 -77.8653 335° Northwest 317 365 23,100 -700 Descending Washington Center
Sat 01:30:13 PM 34.2192 -77.9044 338° Northwest 311 358 23,000 -48 Descending Washington Center
Sat 01:31:17 PM 34.2975 -77.9447 337° Northwest 297 342 23,000  Level Washington Center
Sat 01:32:20 PM 34.3686 -77.9828 336° Northwest 284 327 23,000  Level Washington Center
Sat 01:33:21 PM 34.4433 -78.0211 337° Northwest 285 328 23,000  Level Washington Center
Sat 01:34:22 PM 34.5203 -78.0622 336° Northwest 295 339 23,000  Level Washington Center
Sat 01:35:26 PM 34.5989 -78.1031 337° Northwest 303 349 23,000  Level Washington Center
Sat 01:36:27 PM 34.6933 -78.1528 337° Northwest 304 350 23,000 -336 Level Washington Center
Sat 01:37:31 PM 34.7736 -78.1950 337° Northwest 308 354 22,300 -864 Descending Washington Center
Sat 01:38:32 PM 34.8522 -78.2375 336° Northwest 313 360 21,200 -1,328 Descending Washington Center
Sat 01:39:33 PM 34.9322 -78.2789 337° Northwest 313 360 19,600 -1,645 Descending Washington Center
Sat 01:40:36 PM 35.0214 -78.3267 336° Northwest 295 339 17,800 -1,440 Descending Washington Center
Sat 01:41:38 PM 35.0972 -78.3678 336° Northwest 295 339 16,600 -1,344 Descending Washington Center
Sat 01:42:41 PM 35.1725 -78.4072 337° Northwest 294 338 15,000 -1,500 Descending Washington Center
Sat 01:43:42 PM 35.2494 -78.4483 336° Northwest 297 342 13,500 -1,781 Descending Washington Center
Sat 01:43:45 PM 35.2619 -78.4569 331° Northwest 300 345 13,100 -1,500 Descending Washington Center
Sat 01:44:46 PM 35.3264 -78.4897 337° Northwest 299 344 11,900 -1,522 Descending Washington Center
Sat 01:44:52 PM 35.3442 -78.5031 329° Northwest 305 351 11,400 -800 Descending Washington Center
Sat 01:45:46 PM 35.4133 -78.5386 337° Northwest 286 329 11,100 -364 Descending Washington Center
Sat 01:45:58 PM 35.4225 -78.5436 336° Northwest 284 327 11,000 -109 Descending Washington Center
Sat 01:46:41 PM 35.4789 -78.5736 337° Northwest 276 318 11,000 115 Level Washington Center
Sat 01:46:50 PM 35.4850 -78.5764 340° North 282 325 11,100 -444 Climbing Washington Center
Sat 01:47:35 PM 35.5450 -78.6103 335° Northwest 283 326 10,600 -800 Descending Washington Center
Sat 01:47:50 PM 35.5628 -78.6183 340° North 282 325 10,300 -1,600 Descending Washington Center
Sat 01:48:35 PM 35.6131 -78.6472 335° Northwest 271 312 9,000 -1,219 Descending Washington Center
Sat 01:48:54 PM 35.6189 -78.6478 356° North 263 303 9,000 -1,875 Level Washington Center
Sat 01:49:55 PM 35.6867 -78.6981 329° Northwest 239 275 6,500 -2,532 Descending Washington Center
Sat 01:50:43 PM 35.7272 -78.7361 323° Northwest 225 259 4,400 -2,381 Descending Washington Center
Sat 01:50:58 PM 35.7375 -78.7453 324° Northwest 231 266 4,000 -1,475 Descending Washington Center
Sat 01:51:44 PM 35.7753 -78.7861 319° Northwest 216 249 2,900 -885 Descending Washington Center
Sat 01:51:59 PM 35.7850 -78.7922 333° Northwest 224 258 3,100 -900 Climbing Washington Center
Sat 01:52:44 PM 35.8150 -78.8144 329° Northwest 141 162 2,000 -1,125 Descending Washington Center
Sat 01:53:03 PM 35.8211 -78.8156 352° North 158 182 1,900 -1,254 Descending Washington Center
Sat 01:53:51 PM 35.8578 -78.8044 14° North 146 168 600 -984 Descending Washington Center
Sat 01:54:04 PM 35.8603 -78.7958 70° East 159 183 900 1,385 Climbing Washington Center
Sat 01:56:00 PM 35.8667 -78.7833 332° Northwest  Level FlightAware Approximate

Login

Don't have an account? Register now (free) for customized features, flight alerts, and more!